createdAt,value
2018-06-05T00:00:06.128Z,18.90
2018-06-05T00:02:35.232Z,18.95
2018-06-05T00:05:04.364Z,18.99
2018-06-05T00:07:33.464Z,18.94
2018-06-05T00:10:02.534Z,18.83
2018-06-05T00:12:31.640Z,18.79
2018-06-05T00:15:00.721Z,18.79
2018-06-05T00:17:29.816Z,18.75
2018-06-05T00:19:58.888Z,18.77
2018-06-05T00:22:28.029Z,18.85
2018-06-05T00:24:57.096Z,18.89
2018-06-05T00:27:26.192Z,18.94
2018-06-05T00:29:55.268Z,18.85
2018-06-05T00:32:24.367Z,18.83
2018-06-05T00:34:53.444Z,18.84
2018-06-05T00:37:22.547Z,18.72
2018-06-05T00:39:51.671Z,18.64
2018-06-05T00:42:20.776Z,18.73
2018-06-05T00:44:49.848Z,18.83
2018-06-05T00:47:18.948Z,18.85
2018-06-05T00:49:48.032Z,18.66
2018-06-05T00:52:17.123Z,18.64
2018-06-05T00:54:46.205Z,18.61
2018-06-05T00:57:15.308Z,18.57
2018-06-05T00:59:44.379Z,18.59
2018-06-05T01:02:13.492Z,18.47
2018-06-05T01:04:42.612Z,18.49
2018-06-05T01:07:11.771Z,18.49
2018-06-05T01:09:40.843Z,18.52
2018-06-05T01:12:09.940Z,18.55
2018-06-05T01:14:39.015Z,18.57
2018-06-05T01:17:08.152Z,18.49
2018-06-05T01:19:37.241Z,18.45
2018-06-05T01:22:06.335Z,18.45
2018-06-05T01:24:35.412Z,18.26
2018-06-05T01:27:04.519Z,18.26
2018-06-05T01:29:33.596Z,18.17
2018-06-05T01:32:02.684Z,18.08
2018-06-05T01:34:31.765Z,17.96
2018-06-05T01:37:00.861Z,17.95
2018-06-05T01:39:29.959Z,17.81
2018-06-05T01:41:59.072Z,17.92
2018-06-05T01:44:28.152Z,17.98
2018-06-05T01:46:57.240Z,18.02
2018-06-05T01:49:30.500Z,17.78
2018-06-05T01:51:59.577Z,17.64
2018-06-05T01:54:28.684Z,17.75
2018-06-05T01:56:57.808Z,17.81
2018-06-05T01:59:26.909Z,17.88
2018-06-05T02:01:55.985Z,17.90
2018-06-05T02:04:25.096Z,17.84
2018-06-05T02:06:54.169Z,17.88
2018-06-05T02:09:23.272Z,17.99
2018-06-05T02:11:52.352Z,18.09
2018-06-05T02:14:21.448Z,18.07
2018-06-05T02:16:50.531Z,18.03
2018-06-05T02:19:19.632Z,17.96
2018-06-05T02:21:48.720Z,17.82
2018-06-05T02:24:17.842Z,17.80
2018-06-05T02:26:46.909Z,17.83
2018-06-05T02:29:16.015Z,17.85
2018-06-05T02:31:45.088Z,17.84
2018-06-05T02:34:14.204Z,17.83
2018-06-05T02:36:43.280Z,17.89
2018-06-05T02:39:12.405Z,17.91
2018-06-05T02:41:41.488Z,17.90
2018-06-05T02:44:10.589Z,17.83
2018-06-05T02:46:39.655Z,17.88
2018-06-05T02:49:08.761Z,17.94
2018-06-05T02:51:37.835Z,18.00
2018-06-05T02:54:06.996Z,17.96
2018-06-05T02:56:36.064Z,17.88
2018-06-05T02:59:05.405Z,17.92
2018-06-05T03:01:34.472Z,17.83
2018-06-05T03:04:03.572Z,17.65
2018-06-05T03:06:32.652Z,17.58
2018-06-05T03:09:01.743Z,17.65
2018-06-05T03:11:30.819Z,17.74
2018-06-05T03:13:59.921Z,17.89
2018-06-05T03:16:28.995Z,17.92
2018-06-05T03:18:58.085Z,17.92
2018-06-05T03:21:27.157Z,17.95
2018-06-05T03:23:56.252Z,17.99
2018-06-05T03:26:25.335Z,17.99
2018-06-05T03:28:54.428Z,17.99
2018-06-05T03:31:23.507Z,17.97
2018-06-05T03:33:52.605Z,17.99
2018-06-05T03:36:21.675Z,17.92
2018-06-05T03:38:50.792Z,17.91
2018-06-05T03:41:19.864Z,17.92
2018-06-05T03:43:48.962Z,17.88
2018-06-05T03:46:18.032Z,17.82
2018-06-05T03:48:47.128Z,17.83
2018-06-05T03:51:16.196Z,17.90
2018-06-05T03:53:45.291Z,17.93
2018-06-05T03:56:14.368Z,17.93
2018-06-05T03:58:43.476Z,17.79
2018-06-05T04:01:12.552Z,17.73
2018-06-05T04:03:41.659Z,17.76
2018-06-05T04:06:10.735Z,17.87
2018-06-05T04:08:39.808Z,17.76
2018-06-05T04:11:08.931Z,17.79
2018-06-05T04:13:38.004Z,17.86
2018-06-05T04:16:07.187Z,17.84
2018-06-05T04:18:36.302Z,17.90
2018-06-05T04:21:05.357Z,17.88
2018-06-05T04:23:34.427Z,17.90
2018-06-05T04:26:03.532Z,17.87
2018-06-05T04:28:32.604Z,17.88
2018-06-05T04:31:01.704Z,17.93
2018-06-05T04:33:30.776Z,18.08
2018-06-05T04:35:59.871Z,18.18
2018-06-05T04:38:28.971Z,18.26
2018-06-05T04:40:58.160Z,18.28
2018-06-05T04:43:27.699Z,18.35
2018-06-05T04:45:56.816Z,18.38
2018-06-05T04:48:26.020Z,18.44
2018-06-05T04:50:55.140Z,18.42
2018-06-05T04:53:24.228Z,18.36
2018-06-05T04:55:53.420Z,18.45
2018-06-05T04:58:22.511Z,18.52
2018-06-05T05:00:51.688Z,18.54
2018-06-05T05:03:20.798Z,18.59
2018-06-05T05:05:49.871Z,18.60
2018-06-05T05:08:18.977Z,18.64
2018-06-05T05:10:48.184Z,18.61
2018-06-05T05:13:17.268Z,18.65
2018-06-05T05:15:46.408Z,18.64
2018-06-05T05:18:15.504Z,18.66
2018-06-05T05:20:44.612Z,18.63
2018-06-05T05:23:13.733Z,18.65
2018-06-05T05:25:42.856Z,18.66
2018-06-05T05:28:11.955Z,18.73
2018-06-05T05:30:41.148Z,18.75
2018-06-05T05:33:10.240Z,18.77
2018-06-05T05:35:39.360Z,18.76
2018-06-05T05:38:08.449Z,18.72
2018-06-05T05:40:37.627Z,18.68
2018-06-05T05:43:06.824Z,18.66
2018-06-05T05:45:35.927Z,18.63
2018-06-05T05:48:05.148Z,18.74
2018-06-05T05:50:34.251Z,18.75
2018-06-05T05:53:03.332Z,18.77
2018-06-05T05:55:32.436Z,18.78
2018-06-05T05:58:01.569Z,18.75
2018-06-05T06:00:30.664Z,18.85
2018-06-05T06:02:59.812Z,18.84
2018-06-05T06:05:28.979Z,18.77
2018-06-05T06:07:58.168Z,18.81
2018-06-05T06:10:28.388Z,18.81
2018-06-05T06:12:57.481Z,18.90
2018-06-05T06:15:26.585Z,18.80
2018-06-05T06:17:55.677Z,18.60
2018-06-05T06:20:24.786Z,18.51
2018-06-05T06:22:53.868Z,18.48
2018-06-05T06:25:22.997Z,18.43
2018-06-05T06:27:52.080Z,18.35
2018-06-05T06:30:21.212Z,18.34
2018-06-05T06:32:50.296Z,18.33
2018-06-05T06:35:19.423Z,18.31
2018-06-05T06:37:48.476Z,18.15
2018-06-05T06:40:17.604Z,18.06
2018-06-05T06:42:46.696Z,18.04
2018-06-05T06:45:15.812Z,17.95
2018-06-05T06:47:44.898Z,17.91
2018-06-05T06:50:13.980Z,17.86
2018-06-05T06:52:43.083Z,17.88
2018-06-05T06:55:12.168Z,17.87
2018-06-05T06:57:41.291Z,17.91
2018-06-05T07:00:10.381Z,17.97
2018-06-05T07:02:39.487Z,17.99
2018-06-05T07:05:08.668Z,18.00
2018-06-05T07:07:37.772Z,17.99
2018-06-05T07:10:06.851Z,17.77
2018-06-05T07:12:35.967Z,17.79
2018-06-05T07:15:05.049Z,17.67
2018-06-05T07:17:34.158Z,17.69
2018-06-05T07:20:03.248Z,17.75
2018-06-05T07:22:32.404Z,17.89
2018-06-05T07:25:01.482Z,17.92
2018-06-05T07:27:30.590Z,17.93
2018-06-05T07:29:59.668Z,17.99
2018-06-05T07:32:28.768Z,18.03
2018-06-05T07:34:57.851Z,18.08
2018-06-05T07:37:26.953Z,18.12
2018-06-05T07:39:56.055Z,18.11
2018-06-05T07:42:25.153Z,18.06
2018-06-05T07:44:54.224Z,18.05
2018-06-05T07:47:23.325Z,18.14
2018-06-05T07:49:52.407Z,18.15
2018-06-05T07:52:21.507Z,18.16
2018-06-05T07:54:50.576Z,18.30
2018-06-05T07:57:20.264Z,18.38
2018-06-05T07:59:50.320Z,18.38
2018-06-05T08:02:20.343Z,18.41
2018-06-05T08:04:50.344Z,18.63
2018-06-05T08:07:20.372Z,18.60
2018-06-05T08:09:50.372Z,18.78
2018-06-05T08:12:20.404Z,18.71
2018-06-05T08:14:50.401Z,18.78
2018-06-05T08:17:20.452Z,18.83
2018-06-05T08:19:50.441Z,18.97
2018-06-05T08:22:20.466Z,18.92
2018-06-05T08:24:50.465Z,18.91
2018-06-05T08:27:20.608Z,18.88
2018-06-05T08:29:50.496Z,18.80
2018-06-05T08:32:19.600Z,18.98
2018-06-05T08:34:48.685Z,19.05
2018-06-05T08:37:17.775Z,18.91
2018-06-05T08:39:46.880Z,18.82
2018-06-05T08:42:15.990Z,18.43
2018-06-05T08:44:45.072Z,18.45
2018-06-05T08:47:14.176Z,18.41
2018-06-05T08:49:43.259Z,18.37
2018-06-05T08:52:12.356Z,18.52
2018-06-05T08:54:42.468Z,18.58
2018-06-05T08:57:11.576Z,18.56
2018-06-05T08:59:40.664Z,18.62
2018-06-05T09:02:09.776Z,18.30
2018-06-05T09:04:38.855Z,18.35
2018-06-05T09:07:07.977Z,18.25
2018-06-05T09:09:37.056Z,18.46
2018-06-05T09:12:06.160Z,18.59
2018-06-05T09:14:35.243Z,18.58
2018-06-05T09:17:04.352Z,18.35
2018-06-05T09:19:33.604Z,18.16
2018-06-05T09:22:02.716Z,18.07
2018-06-05T09:24:31.800Z,18.04
2018-06-05T09:27:00.908Z,18.11
2018-06-05T09:29:30.041Z,18.27
2018-06-05T09:31:59.161Z,18.50
2018-06-05T09:34:28.259Z,18.56
2018-06-05T09:36:57.356Z,18.61
2018-06-05T09:39:26.464Z,18.71
2018-06-05T09:41:55.584Z,18.84
2018-06-05T09:44:24.685Z,18.87
2018-06-05T09:46:53.878Z,18.81
2018-06-05T09:49:22.971Z,18.73
2018-06-05T09:51:52.151Z,18.80
2018-06-05T09:54:21.439Z,18.93
2018-06-05T09:56:50.590Z,18.89
2018-06-05T09:59:19.760Z,18.87
2018-06-05T10:01:48.816Z,18.80
2018-06-05T10:04:17.920Z,18.80
2018-06-05T10:06:47.749Z,18.70
2018-06-05T10:09:18.172Z,18.84
2018-06-05T10:11:47.254Z,18.90
2018-06-05T10:14:16.370Z,18.96
2018-06-05T10:16:45.523Z,19.06
2018-06-05T10:19:14.672Z,19.04
2018-06-05T10:21:43.760Z,19.05
2018-06-05T10:24:13.011Z,19.15
2018-06-05T10:26:42.138Z,19.30
2018-06-05T10:29:11.389Z,19.40
2018-06-05T10:31:40.460Z,19.49
2018-06-05T10:34:10.284Z,19.35
2018-06-05T10:36:39.392Z,19.21
2018-06-05T10:39:08.616Z,19.31
2018-06-05T10:41:37.700Z,19.53
2018-06-05T10:44:06.807Z,19.74
2018-06-05T10:46:35.906Z,19.92
2018-06-05T10:49:05.028Z,19.89
2018-06-05T10:51:34.113Z,19.69
2018-06-05T10:54:03.215Z,19.72
2018-06-05T10:56:32.294Z,19.95
2018-06-05T10:59:02.173Z,20.00
2018-06-05T11:01:31.187Z,20.04
2018-06-05T11:04:00.290Z,20.12
2018-06-05T11:06:29.364Z,20.23
2018-06-05T11:08:58.468Z,20.19
2018-06-05T11:11:27.552Z,20.17
2018-06-05T11:13:56.645Z,19.98
2018-06-05T11:16:25.719Z,19.74
2018-06-05T11:18:54.828Z,19.76
2018-06-05T11:21:23.921Z,19.79
2018-06-05T11:23:53.016Z,19.91
2018-06-05T11:26:22.091Z,20.07
2018-06-05T11:28:51.204Z,20.13
2018-06-05T11:31:20.287Z,20.01
2018-06-05T11:33:49.387Z,19.96
2018-06-05T11:36:18.476Z,20.10
2018-06-05T11:38:47.604Z,20.30
2018-06-05T11:41:16.696Z,20.38
2018-06-05T11:43:45.800Z,20.52
2018-06-05T11:46:14.917Z,20.76
2018-06-05T11:48:44.036Z,20.72
2018-06-05T11:51:13.140Z,20.87
2018-06-05T11:53:42.303Z,21.08
2018-06-05T11:56:11.400Z,21.21
2018-06-05T11:58:40.522Z,21.24
2018-06-05T12:01:09.616Z,21.15
2018-06-05T12:03:38.728Z,21.05
2018-06-05T12:06:07.828Z,21.14
2018-06-05T12:08:36.942Z,21.31
2018-06-05T12:11:06.028Z,21.31
2018-06-05T12:13:35.148Z,21.35
2018-06-05T12:16:04.355Z,21.32
2018-06-05T12:18:33.469Z,21.17
2018-06-05T12:21:02.576Z,21.32
2018-06-05T12:23:31.696Z,21.31
2018-06-05T12:26:00.785Z,21.38
2018-06-05T12:28:29.919Z,21.19
2018-06-05T12:30:59.090Z,21.37
2018-06-05T12:33:28.139Z,21.51
2018-06-05T12:35:57.280Z,21.65
2018-06-05T12:38:26.491Z,21.72
2018-06-05T12:40:55.708Z,21.88
2018-06-05T12:43:24.792Z,21.86
2018-06-05T12:45:53.903Z,21.83
2018-06-05T12:48:22.992Z,21.73
2018-06-05T12:50:52.107Z,21.90
2018-06-05T12:53:21.175Z,21.94
2018-06-05T12:55:50.296Z,21.94
2018-06-05T12:58:19.701Z,21.90
2018-06-05T13:00:48.809Z,21.75
2018-06-05T13:03:17.899Z,21.71
2018-06-05T13:05:47.001Z,21.65
2018-06-05T13:08:16.088Z,21.59
2018-06-05T13:10:45.193Z,21.67
2018-06-05T13:13:14.324Z,21.66
2018-06-05T13:15:43.440Z,21.57
2018-06-05T13:18:12.512Z,21.64
2018-06-05T13:20:41.617Z,21.59
2018-06-05T13:23:10.908Z,21.39
2018-06-05T13:25:39.980Z,21.27
2018-06-05T13:28:09.061Z,21.48
2018-06-05T13:30:38.172Z,21.68
2018-06-05T13:33:07.264Z,21.60
2018-06-05T13:35:36.365Z,21.65
2018-06-05T13:38:05.456Z,21.80
2018-06-05T13:40:34.589Z,21.86
2018-06-05T13:43:03.680Z,21.80
2018-06-05T13:45:32.781Z,21.98
2018-06-05T13:48:01.868Z,22.07
2018-06-05T13:50:30.976Z,22.02
2018-06-05T13:53:00.056Z,21.93
2018-06-05T13:55:29.164Z,21.79
2018-06-05T13:57:58.248Z,21.79
2018-06-05T14:00:27.353Z,21.86
2018-06-05T14:02:56.424Z,21.93
2018-06-05T14:05:25.524Z,22.10
2018-06-05T14:07:54.637Z,22.33
2018-06-05T14:10:23.716Z,22.46
2018-06-05T14:12:52.829Z,22.56
2018-06-05T14:15:21.920Z,22.61
2018-06-05T14:17:51.039Z,22.58
2018-06-05T14:20:20.123Z,22.59
2018-06-05T14:22:49.232Z,22.47
2018-06-05T14:25:18.328Z,22.56
2018-06-05T14:27:47.436Z,22.50
2018-06-05T14:30:16.522Z,22.43
2018-06-05T14:32:45.616Z,22.45
2018-06-05T14:35:14.697Z,22.50
2018-06-05T14:37:43.815Z,22.54
2018-06-05T14:40:12.913Z,22.61
2018-06-05T14:42:42.019Z,22.54
2018-06-05T14:45:11.204Z,22.64
2018-06-05T14:47:40.212Z,22.76
2018-06-05T14:50:09.308Z,22.78
2018-06-05T14:52:38.425Z,22.67
2018-06-05T14:55:07.508Z,22.67
2018-06-05T14:57:36.620Z,22.73
2018-06-05T15:00:06.450Z,22.80
2018-06-05T15:02:35.547Z,22.97
2018-06-05T15:05:04.639Z,23.15
2018-06-05T15:07:33.744Z,23.42
2018-06-05T15:10:02.833Z,23.47
2018-06-05T15:12:31.960Z,23.36
2018-06-05T15:15:01.046Z,23.42
2018-06-05T15:17:30.196Z,23.56
2018-06-05T15:19:59.275Z,23.58
2018-06-05T15:22:28.381Z,23.55
2018-06-05T15:24:57.749Z,23.51
2018-06-05T15:27:26.832Z,23.50
2018-06-05T15:29:55.932Z,23.47
2018-06-05T15:32:25.373Z,23.56
2018-06-05T15:34:54.661Z,23.58
2018-06-05T15:37:23.856Z,23.65
2018-06-05T15:39:53.607Z,23.72
2018-06-05T15:42:22.785Z,23.79
2018-06-05T15:44:51.884Z,23.84
2018-06-05T15:47:21.020Z,23.81
2018-06-05T15:49:50.872Z,23.84
2018-06-05T15:52:20.153Z,23.96
2018-06-05T15:54:49.299Z,24.07
2018-06-05T15:57:18.794Z,24.14
2018-06-05T15:59:47.892Z,24.22
2018-06-05T16:02:16.981Z,24.13
2018-06-05T16:04:46.194Z,24.07
2018-06-05T16:07:15.173Z,24.03
2018-06-05T16:09:44.279Z,23.96
2018-06-05T16:12:14.061Z,23.99
2018-06-05T16:14:43.196Z,23.98
2018-06-05T16:17:12.284Z,23.93
2018-06-05T16:19:41.392Z,24.07
2018-06-05T16:22:10.472Z,24.10
2018-06-05T16:24:39.596Z,24.20
2018-06-05T16:27:08.684Z,24.14
2018-06-05T16:29:37.781Z,24.07
2018-06-05T16:32:07.056Z,24.17
2018-06-05T16:34:37.176Z,24.09
2018-06-05T16:37:06.288Z,23.90
2018-06-05T16:39:35.543Z,23.85
2018-06-05T16:42:04.693Z,23.92
2018-06-05T16:44:33.772Z,23.96
2018-06-05T16:47:02.904Z,23.95
2018-06-05T16:49:31.996Z,24.04
2018-06-05T16:52:01.112Z,24.03
2018-06-05T16:54:30.220Z,24.08
2018-06-05T16:56:59.345Z,24.14
2018-06-05T16:59:28.432Z,24.17
2018-06-05T17:01:57.556Z,24.12
2018-06-05T17:04:26.759Z,24.12
2018-06-05T17:06:56.432Z,24.10
2018-06-05T17:09:25.528Z,24.05
2018-06-05T17:11:54.656Z,23.98
2018-06-05T17:14:23.756Z,24.02
2018-06-05T17:16:52.871Z,24.09
2018-06-05T17:19:21.995Z,24.07
2018-06-05T17:21:51.097Z,24.03
2018-06-05T17:24:20.183Z,24.02
2018-06-05T17:26:49.276Z,24.03
2018-06-05T17:29:18.397Z,23.95
2018-06-05T17:31:47.480Z,23.97
2018-06-05T17:34:16.604Z,23.94
2018-06-05T17:36:45.724Z,23.78
2018-06-05T17:39:14.863Z,23.75
2018-06-05T17:41:43.958Z,23.74
2018-06-05T17:44:13.070Z,23.57
2018-06-05T17:46:42.513Z,23.53
2018-06-05T17:49:11.636Z,23.47
2018-06-05T17:51:40.733Z,23.50
2018-06-05T17:54:09.844Z,23.55
2018-06-05T17:56:38.963Z,23.58
2018-06-05T17:59:08.080Z,23.54
2018-06-05T18:01:37.168Z,23.55
2018-06-05T18:04:06.291Z,23.60
2018-06-05T18:06:35.380Z,23.62
2018-06-05T18:09:06.774Z,23.56
2018-06-05T18:11:36.051Z,23.55
2018-06-05T18:14:05.447Z,23.58
2018-06-05T18:16:35.286Z,23.53
2018-06-05T18:19:05.505Z,23.44
2018-06-05T18:21:34.900Z,23.47
2018-06-05T18:24:04.741Z,23.46
2018-06-05T18:26:34.060Z,23.46
2018-06-05T18:29:03.848Z,23.44
2018-06-05T18:31:33.571Z,23.41
2018-06-05T18:34:02.891Z,23.39
2018-06-05T18:36:33.301Z,23.24
2018-06-05T18:39:03.702Z,23.16
2018-06-05T18:41:33.476Z,23.00
2018-06-05T18:44:02.892Z,22.83
2018-06-05T18:46:32.118Z,22.75
2018-06-05T18:49:01.220Z,22.74
2018-06-05T18:51:30.337Z,22.77
2018-06-05T18:53:59.412Z,22.72
2018-06-05T18:56:28.582Z,22.84
2018-06-05T18:58:57.663Z,22.89
2018-06-05T19:01:27.691Z,22.87
2018-06-05T19:03:56.846Z,22.84
2018-06-05T19:06:25.917Z,22.73
2018-06-05T19:08:55.112Z,22.74
2018-06-05T19:11:24.212Z,22.73
2018-06-05T19:13:53.301Z,22.66
2018-06-05T19:16:22.402Z,22.50
2018-06-05T19:18:52.332Z,22.37
2018-06-05T19:21:21.440Z,22.31
2018-06-05T19:23:50.528Z,22.26
2018-06-05T19:26:19.633Z,22.25
2018-06-05T19:28:48.717Z,22.25
2018-06-05T19:31:17.828Z,22.18
2018-06-05T19:33:46.903Z,22.14
2018-06-05T19:36:16.005Z,22.06
2018-06-05T19:38:45.131Z,21.89
2018-06-05T19:41:14.283Z,21.76
2018-06-05T19:43:43.325Z,21.65
2018-06-05T19:46:12.408Z,21.54
2018-06-05T19:48:41.526Z,21.44
2018-06-05T19:51:10.592Z,21.35
2018-06-05T19:53:39.680Z,21.37
2018-06-05T19:56:08.969Z,21.44
2018-06-05T19:58:38.055Z,21.46
2018-06-05T20:01:07.198Z,21.45
2018-06-05T20:03:36.244Z,21.35
2018-06-05T20:06:05.532Z,21.27
2018-06-05T20:08:34.640Z,21.24
2018-06-05T20:11:03.713Z,21.23
2018-06-05T20:13:32.803Z,21.18
2018-06-05T20:16:01.885Z,21.08
2018-06-05T20:18:30.980Z,21.02
2018-06-05T20:21:00.048Z,21.00
2018-06-05T20:23:29.149Z,20.95
2018-06-05T20:25:58.232Z,20.90
2018-06-05T20:28:27.331Z,20.97
2018-06-05T20:30:56.401Z,20.93
2018-06-05T20:33:25.505Z,20.80
2018-06-05T20:35:54.581Z,20.70
2018-06-05T20:38:23.671Z,20.52
2018-06-05T20:40:52.732Z,20.53
2018-06-05T20:43:21.828Z,20.57
2018-06-05T20:45:50.908Z,20.55
2018-06-05T20:48:20.017Z,20.51
2018-06-05T20:50:49.868Z,20.41
2018-06-05T20:53:18.972Z,20.33
2018-06-05T20:55:48.048Z,20.34
2018-06-05T20:58:17.156Z,20.33
2018-06-05T21:00:46.234Z,20.27
2018-06-05T21:03:15.412Z,20.22
2018-06-05T21:05:44.492Z,20.09
2018-06-05T21:08:13.602Z,20.09
2018-06-05T21:10:42.685Z,20.08
2018-06-05T21:13:11.751Z,20.04
2018-06-05T21:15:40.848Z,20.00
2018-06-05T21:18:09.924Z,19.98
2018-06-05T21:20:39.024Z,19.88
2018-06-05T21:23:08.104Z,19.89
2018-06-05T21:25:37.205Z,19.85
2018-06-05T21:28:06.352Z,19.85
2018-06-05T21:30:35.449Z,19.81
2018-06-05T21:33:04.752Z,19.74
2018-06-05T21:35:33.852Z,19.60
2018-06-05T21:38:02.940Z,19.57
2018-06-05T21:40:32.056Z,19.52
2018-06-05T21:43:01.124Z,19.45
2018-06-05T21:45:30.215Z,19.50
2018-06-05T21:47:59.284Z,19.49
2018-06-05T21:50:28.380Z,19.39
2018-06-05T21:52:57.452Z,19.32
2018-06-05T21:55:26.548Z,19.37
2018-06-05T21:57:55.619Z,19.35
2018-06-05T22:00:24.718Z,19.33
2018-06-05T22:02:53.789Z,19.27
2018-06-05T22:05:22.883Z,19.23
2018-06-05T22:07:51.960Z,19.18
2018-06-05T22:10:21.064Z,19.17
2018-06-05T22:12:50.136Z,19.22
2018-06-05T22:15:19.383Z,19.15
2018-06-05T22:17:48.459Z,19.08
2018-06-05T22:20:17.532Z,19.12
2018-06-05T22:22:46.636Z,19.12
2018-06-05T22:25:15.720Z,19.10
2018-06-05T22:27:44.825Z,18.99
2018-06-05T22:30:13.899Z,18.89
2018-06-05T22:32:42.989Z,18.82
2018-06-05T22:35:12.074Z,18.87
2018-06-05T22:37:41.185Z,18.83
2018-06-05T22:40:10.280Z,18.84
2018-06-05T22:42:39.384Z,18.79
2018-06-05T22:45:08.456Z,18.74
2018-06-05T22:47:37.556Z,18.78
2018-06-05T22:50:06.712Z,18.73
2018-06-05T22:52:35.810Z,18.69
2018-06-05T22:55:04.888Z,18.67
2018-06-05T22:57:33.984Z,18.56
2018-06-05T23:00:03.068Z,18.42
2018-06-05T23:02:31.888Z,18.40
2018-06-05T23:05:00.965Z,18.35
2018-06-05T23:07:30.057Z,18.36
2018-06-05T23:09:59.132Z,18.28
2018-06-05T23:12:28.232Z,18.31
2018-06-05T23:14:57.304Z,18.30
2018-06-05T23:17:26.396Z,18.30
2018-06-05T23:19:55.471Z,18.33
2018-06-05T23:22:24.574Z,18.37
2018-06-05T23:24:53.744Z,18.25
2018-06-05T23:27:22.844Z,18.03
2018-06-05T23:29:51.924Z,17.80
2018-06-05T23:32:21.004Z,17.62
2018-06-05T23:34:50.103Z,17.65
2018-06-05T23:37:19.184Z,17.78
2018-06-05T23:39:48.295Z,17.77
2018-06-05T23:42:17.372Z,17.84
2018-06-05T23:44:46.488Z,17.91
2018-06-05T23:47:15.556Z,17.91
2018-06-05T23:49:44.647Z,17.91
2018-06-05T23:52:13.723Z,17.97
2018-06-05T23:54:42.821Z,17.99
2018-06-05T23:57:11.899Z,17.92
2018-06-05T23:59:41.004Z,17.88
